Time;durP1;ratioP1;P1;durP2;ratioP2;P2;SDS_P1;SDS_P2;PMS_P1;PMS_P2;Temp;Humidity;BMP_temperature;BMP_pressure;BME280_temperature;BME280_humidity;BME280_pressure;Samples;Min_cycle;Max_cycle;Signal;HPM_P1;HPM_P2
2023/09/22 00:00:36;;;;;;;19.00;13.75;;;;;;;17.59;71.37;100624.00;4931355;29;20099;-75
2023/09/22 00:03:05;;;;;;;19.23;13.10;;;;;;;17.50;71.26;100597.94;4932549;29;20071;-75
2023/09/22 00:05:31;;;;;;;22.17;13.55;;;;;;;17.63;71.18;100625.66;4931823;29;20070;-76
2023/09/22 00:07:57;;;;;;;21.40;13.30;;;;;;;17.64;71.39;100623.91;4943667;28;20510;-76
2023/09/22 00:10:23;;;;;;;18.67;13.10;;;;;;;17.43;71.24;100595.44;4930840;29;20047;-75
2023/09/22 00:12:50;;;;;;;17.40;12.65;;;;;;;17.28;71.16;100580.03;4930614;29;20043;-75
2023/09/22 00:15:16;;;;;;;18.35;13.13;;;;;;;17.39;71.18;100590.31;4932583;29;20063;-76
2023/09/22 00:17:42;;;;;;;19.00;13.25;;;;;;;17.41;71.19;100591.97;4930248;29;20036;-75
2023/09/22 00:20:09;;;;;;;21.73;12.40;;;;;;;17.45;71.22;100598.91;4945311;29;20072;-75
2023/09/22 00:22:35;;;;;;;19.00;12.60;;;;;;;17.60;71.22;100628.34;4944704;28;20036;-75
2023/09/22 00:25:02;;;;;;;18.35;13.20;;;;;;;17.60;71.04;100628.34;4943956;28;20082;-76
2023/09/22 00:27:30;;;;;;;21.40;13.43;;;;;;;17.58;71.00;100636.28;4931516;29;20387;-75
2023/09/22 00:29:56;;;;;;;21.20;12.70;;;;;;;17.41;71.15;100613.03;4931038;29;20494;-75
2023/09/22 00:32:22;;;;;;;17.67;12.38;;;;;;;17.48;71.05;100620.78;4929974;29;20036;-74
2023/09/22 00:34:48;;;;;;;21.88;12.73;;;;;;;17.27;70.89;100586.19;4945745;28;20039;-76
2023/09/22 00:37:14;;;;;;;17.35;12.80;;;;;;;17.53;70.91;100629.44;4942069;28;20119;-74
2023/09/22 00:39:40;;;;;;;17.25;12.10;;;;;;;17.49;71.11;100625.13;4933333;29;20048;-73
2023/09/22 00:42:09;;;;;;;21.25;13.90;;;;;;;17.55;71.10;100636.38;4932708;29;20079;-75
2023/09/22 00:44:36;;;;;;;20.05;13.38;;;;;;;17.44;70.90;100615.59;4933819;29;20055;-75
2023/09/22 00:47:06;;;;;;;17.92;13.32;;;;;;;17.41;70.87;100609.53;4953123;28;20046;-75
2023/09/22 00:49:33;;;;;;;17.75;12.10;;;;;;;17.32;70.93;100602.75;4951118;28;20059;-75
2023/09/22 00:51:59;;;;;;;20.42;13.52;;;;;;;17.53;70.76;100639.94;4935843;29;20043;-74
2023/09/22 00:54:25;;;;;;;20.13;12.45;;;;;;;17.47;70.78;100627.78;4942704;28;20069;-77
2023/09/22 00:56:52;;;;;;;18.30;13.13;;;;;;;17.34;70.85;100615.84;4933493;29;20040;-75
2023/09/22 00:59:18;;;;;;;15.23;12.50;;;;;;;17.50;70.66;100645.28;4946086;28;20498;-72
2023/09/22 01:01:45;;;;;;;17.67;12.55;;;;;;;17.27;70.71;100596.72;4932882;29;20117;-74
2023/09/22 01:04:12;;;;;;;20.30;12.88;;;;;;;17.34;70.67;100621.94;4945978;28;20039;-73
2023/09/22 01:06:42;;;;;;;19.45;12.75;;;;;;;17.38;71.18;100628.03;4929959;29;20560;-72
2023/09/22 01:09:11;;;;;;;25.25;12.70;;;;;;;17.27;70.75;100607.25;4946740;28;20043;-72
2023/09/22 01:11:37;;;;;;;17.75;12.15;;;;;;;17.35;70.70;100633.34;4946681;28;20458;-72
2023/09/22 01:14:03;;;;;;;18.80;12.57;;;;;;;17.35;70.70;100630.72;4929466;29;20059;-72
2023/09/22 01:16:29;;;;;;;16.02;12.52;;;;;;;17.23;70.71;100621.34;4930822;29;20050;-70
2023/09/22 01:18:57;;;;;;;18.63;13.15;;;;;;;17.28;70.95;100636.13;4943847;28;20051;-73
2023/09/22 01:21:31;;;;;;;20.15;13.18;;;;;;;17.09;71.21;100605.91;4908231;29;20697;-74
2023/09/22 01:23:59;;;;;;;25.33;13.73;;;;;;;16.99;71.14;100594.72;4909946;29;20051;-74
2023/09/22 01:26:25;;;;;;;21.00;15.23;;;;;;;16.67;70.97;100551.59;4941712;28;20043;-72
2023/09/22 01:28:52;;;;;;;18.55;13.20;;;;;;;17.17;71.02;100640.78;4941929;28;20047;-73
2023/09/22 01:31:18;;;;;;;21.05;14.35;;;;;;;17.05;71.05;100623.53;4924680;29;20062;-75
2023/09/22 01:33:48;;;;;;;22.92;13.73;;;;;;;16.99;71.25;100613.13;4923525;29;20066;-75
2023/09/22 01:36:14;;;;;;;18.52;13.38;;;;;;;17.09;71.17;100643.59;4928513;29;20066;-72
2023/09/22 01:38:40;;;;;;;21.73;13.32;;;;;;;16.86;71.28;100610.75;4929818;29;20050;-73
2023/09/22 01:41:11;;;;;;;19.70;12.98;;;;;;;16.99;71.38;100636.78;4927009;29;20044;-76
2023/09/22 01:43:38;;;;;;;20.15;13.52;;;;;;;16.86;71.31;100623.91;4942138;28;20557;-73
2023/09/22 01:46:06;;;;;;;18.38;12.68;;;;;;;16.97;71.35;100643.84;4906934;29;20536;-72
2023/09/22 01:48:32;;;;;;;21.83;12.80;;;;;;;16.82;71.69;100631.88;4928068;29;20056;-73
2023/09/22 01:51:02;;;;;;;21.13;13.98;;;;;;;16.90;71.54;100644.84;4896456;29;20032;-73
2023/09/22 01:53:29;;;;;;;24.35;13.30;;;;;;;16.90;71.42;100648.34;4929656;28;20978;-74
2023/09/22 01:55:55;;;;;;;19.13;13.15;;;;;;;16.83;71.69;100645.00;4944643;28;20050;-73
2023/09/22 01:58:22;;;;;;;23.55;13.77;;;;;;;16.70;71.86;100640.88;4943769;28;20050;-73
2023/09/22 02:00:49;;;;;;;20.42;13.75;;;;;;;16.71;71.95;100642.59;4912242;29;20051;-74
2023/09/22 02:03:16;;;;;;;21.10;13.73;;;;;;;16.71;71.80;100654.00;4945097;28;20050;-72
2023/09/22 02:05:42;;;;;;;17.40;13.02;;;;;;;16.23;71.74;100599.78;4930782;29;20035;-76
2023/09/22 02:08:08;;;;;;;22.63;14.27;;;;;;;16.52;71.57;100650.88;4946485;28;20046;-73
2023/09/22 02:10:35;;;;;;;20.27;13.48;;;;;;;16.46;72.02;100648.34;4948148;28;20122;-75
2023/09/22 02:13:04;;;;;;;17.15;13.48;;;;;;;16.22;72.28;100629.56;4945851;28;20047;-73
2023/09/22 02:15:31;;;;;;;20.70;14.38;;;;;;;16.11;72.22;100615.78;4945226;28;20044;-74
2023/09/22 02:17:59;;;;;;;22.35;15.20;;;;;;;16.26;72.65;100646.97;4930880;29;20059;-74
2023/09/22 02:20:26;;;;;;;20.77;14.02;;;;;;;16.19;72.82;100637.50;4916231;29;20102;-74
2023/09/22 02:22:56;;;;;;;22.38;15.98;;;;;;;16.22;72.71;100655.81;4931273;29;20051;-73
2023/09/22 02:25:23;;;;;;;27.00;17.05;;;;;;;15.82;72.77;100611.88;4940257;28;20040;-75
2023/09/22 02:27:52;;;;;;;30.63;18.05;;;;;;;16.04;73.21;100664.91;4931110;29;20047;-72
2023/09/22 02:30:19;;;;;;;22.80;15.68;;;;;;;16.01;73.48;100661.44;4931991;29;20047;-73
2023/09/22 02:32:50;;;;;;;24.13;17.92;;;;;;;15.79;73.63;100628.56;4945413;28;20174;-73
2023/09/22 02:35:19;;;;;;;22.05;15.50;;;;;;;15.87;73.89;100644.19;4931809;29;20054;-73
2023/09/22 02:37:45;;;;;;;22.55;14.48;;;;;;;15.79;74.07;100638.16;4929960;29;20047;-73
2023/09/22 02:40:13;;;;;;;20.75;14.70;;;;;;;15.76;73.90;100630.38;4931678;29;20612;-74
2023/09/22 02:42:40;;;;;;;25.73;18.80;;;;;;;15.87;74.15;100649.44;4930764;29;20548;-73
2023/09/22 02:45:07;;;;;;;25.48;18.63;;;;;;;15.92;74.16;100657.22;4930741;29;20468;-74
2023/09/22 02:47:33;;;;;;;21.92;17.00;;;;;;;15.85;74.27;100651.19;4934420;28;20046;-74
2023/09/22 02:49:59;;;;;;;26.15;18.58;;;;;;;15.62;74.41;100618.34;4932585;29;20473;-74
2023/09/22 02:52:25;;;;;;;26.17;17.52;;;;;;;15.80;74.41;100653.91;4908410;29;20577;-75
2023/09/22 02:54:53;;;;;;;32.00;19.48;;;;;;;15.86;74.75;100665.22;4945974;28;20059;-76
2023/09/22 02:57:20;;;;;;;30.27;17.70;;;;;;;15.78;74.82;100660.94;4931822;29;20047;-74
2023/09/22 02:59:46;;;;;;;27.25;17.85;;;;;;;15.67;74.34;100665.47;4944622;28;20499;-75
2023/09/22 03:02:13;;;;;;;27.60;15.70;;;;;;;15.68;74.89;100679.47;4929606;29;20043;-74
2023/09/22 03:04:40;;;;;;;25.50;16.73;;;;;;;15.26;74.88;100611.94;4932162;29;20072;-75
2023/09/22 03:07:07;;;;;;;20.20;15.68;;;;;;;15.18;75.11;100612.06;4931066;29;20151;-76
2023/09/22 03:09:34;;;;;;;19.55;15.95;;;;;;;15.36;74.98;100652.88;4945952;28;20064;-75
2023/09/22 03:12:00;;;;;;;17.67;14.10;;;;;;;15.48;74.92;100691.16;4945798;28;20044;-75
2023/09/22 03:14:26;;;;;;;19.15;13.85;;;;;;;15.45;74.57;100683.31;4927620;29;20446;-76
2023/09/22 03:16:53;;;;;;;19.05;14.85;;;;;;;15.37;74.79;100683.44;4926240;29;20060;-75
2023/09/22 03:19:20;;;;;;;20.63;14.82;;;;;;;15.38;75.05;100694.78;4919588;29;20534;-76
2023/09/22 03:21:46;;;;;;;22.98;15.88;;;;;;;15.34;75.00;100702.69;4926622;29;20042;-77
2023/09/22 03:24:12;;;;;;;20.48;15.57;;;;;;;15.32;75.17;100699.25;4938567;28;20048;-77
2023/09/22 03:26:38;;;;;;;25.02;16.40;;;;;;;15.16;75.41;100666.25;4941527;28;20538;-76
2023/09/22 03:29:04;;;;;;;28.55;19.05;;;;;;;15.27;74.99;100694.94;4904414;29;20050;-75
2023/09/22 03:31:31;;;;;;;30.33;18.50;;;;;;;14.84;75.45;100633.50;4920419;29;20099;-74
2023/09/22 03:33:58;;;;;;;28.33;19.55;;;;;;;15.28;75.67;100694.94;4909549;29;20046;-75
2023/09/22 03:36:30;;;;;;;28.17;18.88;;;;;;;15.26;75.70;100675.75;4941867;28;20426;-75
2023/09/22 03:38:57;;;;;;;29.98;19.77;;;;;;;15.42;75.72;100705.22;4925809;29;20083;-74
2023/09/22 03:41:28;;;;;;;25.75;16.98;;;;;;;15.43;75.86;100711.31;4940213;28;20118;-74
2023/09/22 03:43:55;;;;;;;24.02;15.45;;;;;;;15.24;75.96;100674.00;4922835;29;20067;-74
2023/09/22 03:46:22;;;;;;;32.80;18.52;;;;;;;15.42;75.81;100706.97;4926292;29;20155;-72
2023/09/22 03:48:48;;;;;;;29.20;19.67;;;;;;;15.37;76.34;100696.56;4925962;29;20134;-73
2023/09/22 03:51:14;;;;;;;19.58;14.27;;;;;;;15.46;76.11;100706.03;4909934;29;20143;-72
2023/09/22 03:53:41;;;;;;;25.92;16.13;;;;;;;15.42;76.41;100693.84;4942047;28;20747;-74
2023/09/22 03:56:09;;;;;;;24.23;17.45;;;;;;;15.34;75.96;100680.88;4938089;28;20070;-74
2023/09/22 03:58:36;;;;;;;27.50;16.45;;;;;;;15.56;76.14;100706.78;4941676;28;20040;-75
2023/09/22 04:01:09;;;;;;;24.17;13.38;;;;;;;15.41;76.20;100681.63;4925199;29;20707;-73
2023/09/22 04:03:36;;;;;;;21.17;15.95;;;;;;;14.76;75.82;100575.97;4940754;28;20090;-73
2023/09/22 04:06:04;;;;;;;24.40;13.55;;;;;;;15.47;76.07;100687.66;4900668;29;20051;-72
2023/09/22 04:08:32;;;;;;;21.13;13.00;;;;;;;15.50;75.88;100682.34;4908601;29;20495;-71
2023/09/22 04:11:01;;;;;;;22.73;14.07;;;;;;;15.76;75.79;100709.94;4940992;28;20039;-73
2023/09/22 04:13:27;;;;;;;18.30;12.50;;;;;;;16.00;75.67;100718.34;4939265;28;20055;-74
2023/09/22 04:16:01;;;;;;;19.40;12.52;;;;;;;16.21;75.36;100717.13;4941366;28;20130;-75
2023/09/22 04:18:30;;;;;;;15.27;11.70;;;;;;;16.43;75.13;100716.72;4927538;29;20048;-77
2023/09/22 04:20:58;;;;;;;18.65;12.15;;;;;;;16.34;74.70;100659.13;4925986;29;20087;-74
2023/09/22 04:23:27;;;;;;;26.08;16.92;;;;;;;16.63;74.09;100644.53;4922316;29;20067;-72
2023/09/22 04:25:54;;;;;;;17.38;12.45;;;;;;;16.99;73.80;100636.78;4924701;29;20044;-73
2023/09/22 04:28:24;;;;;;;14.23;11.80;;;;;;;17.59;72.97;100658.19;4939452;28;21014;-75
2023/09/22 04:30:50;;;;;;;21.85;15.02;;;;;;;18.04;72.31;100694.84;4927298;29;20062;-74
2023/09/22 04:33:17;;;;;;;21.50;14.00;;;;;;;18.28;71.55;100663.47;4940016;28;20134;-75
2023/09/22 04:35:44;;;;;;;16.13;11.27;;;;;;;18.86;70.98;100712.84;4905412;29;20154;-73
2023/09/22 04:38:10;;;;;;;15.38;11.32;;;;;;;19.16;70.49;100719.94;4921261;29;20098;-75
2023/09/22 04:40:39;;;;;;;16.83;12.05;;;;;;;19.39;69.86;100695.47;4928242;29;20074;-75
2023/09/22 04:43:09;;;;;;;16.05;11.88;;;;;;;20.27;69.04;100718.13;4941977;28;20052;-73
2023/09/22 04:45:43;;;;;;;13.73;10.90;;;;;;;21.53;67.89;100714.38;4926073;29;20043;-74
2023/09/22 04:48:10;;;;;;;16.45;11.40;;;;;;;22.42;65.92;100679.75;4925845;29;20517;-74
2023/09/22 04:50:38;;;;;;;18.05;11.25;;;;;;;23.70;63.88;100718.13;4925140;29;20414;-73
2023/09/22 04:53:05;;;;;;;15.55;10.82;;;;;;;24.46;61.64;100686.84;4938858;28;20619;-74
2023/09/22 04:55:35;;;;;;;14.30;10.75;;;;;;;25.04;59.65;100650.91;4925803;29;20091;-76
2023/09/22 04:58:03;;;;;;;14.07;11.18;;;;;;;25.95;56.37;100683.91;4940192;28;20063;-72
2023/09/22 05:00:33;;;;;;;13.25;11.10;;;;;;;26.67;54.35;100688.50;4905275;29;20051;-75
2023/09/22 05:03:05;;;;;;;14.73;11.40;;;;;;;27.08;50.77;100686.84;4910004;29;20048;-78
2023/09/22 05:05:33;;;;;;;12.90;10.70;;;;;;;27.95;50.84;100711.44;4944245;28;20102;-77
2023/09/22 05:07:59;;;;;;;12.55;10.57;;;;;;;28.19;49.33;100633.19;4936199;28;20087;-76
2023/09/22 05:10:27;;;;;;;18.83;11.40;;;;;;;29.10;47.42;100682.94;4929887;29;20040;-73
2023/09/22 05:12:54;;;;;;;14.15;11.25;;;;;;;29.92;45.82;100689.41;4929392;29;20039;-76
2023/09/22 05:15:20;;;;;;;14.10;10.68;;;;;;;30.79;43.97;100718.47;4928502;29;20138;-74
2023/09/22 05:17:46;;;;;;;12.52;11.18;;;;;;;31.35;42.21;100703.25;4930769;29;20043;-76
2023/09/22 05:20:14;;;;;;;11.85;10.63;;;;;;;32.00;40.26;100716.69;4929863;29;20075;-75
2023/09/22 05:22:42;;;;;;;12.60;11.25;;;;;;;32.38;39.00;100676.69;4938336;28;20138;-75
2023/09/22 05:25:10;;;;;;;16.83;11.65;;;;;;;33.31;37.42;100719.69;4943885;28;20078;-75
2023/09/22 05:27:36;;;;;;;13.13;11.80;;;;;;;33.84;35.85;100709.50;4947092;28;20446;-74
2023/09/22 05:30:06;;;;;;;13.93;10.77;;;;;;;34.17;34.81;100699.22;4930156;29;20051;-75
2023/09/22 05:32:32;;;;;;;13.77;11.60;;;;;;;34.61;33.42;100714.03;4930567;29;20047;-72
2023/09/22 05:34:59;;;;;;;14.20;11.32;;;;;;;35.05;33.04;100711.53;4932172;29;20075;-75
2023/09/22 05:37:26;;;;;;;13.75;10.90;;;;;;;35.83;31.91;100730.91;4935966;28;20806;-75
2023/09/22 05:39:53;;;;;;;13.50;10.20;;;;;;;35.92;31.19;100713.72;4942275;28;20135;-75
2023/09/22 05:42:19;;;;;;;14.23;10.70;;;;;;;36.18;30.36;100664.16;4930075;29;20114;-74
2023/09/22 05:44:46;;;;;;;14.27;9.82;;;;;;;37.09;29.77;100713.38;4927988;29;20486;-76
2023/09/22 05:47:12;;;;;;;18.80;11.00;;;;;;;37.34;28.48;100664.59;4912583;29;20050;-74
2023/09/22 05:49:38;;;;;;;19.70;10.77;;;;;;;38.13;27.73;100734.66;4927348;29;20134;-73
2023/09/22 05:52:05;;;;;;;12.30;9.25;;;;;;;38.40;27.47;100692.69;4929036;29;20091;-76
2023/09/22 05:54:31;;;;;;;15.13;10.00;;;;;;;39.01;26.01;100711.09;4939047;28;20040;-78
2023/09/22 05:56:57;;;;;;;14.98;9.80;;;;;;;39.60;24.93;100731.47;4919034;29;20046;-75
2023/09/22 05:59:26;;;;;;;19.05;10.35;;;;;;;40.08;24.18;100741.25;4928869;29;20051;-74
2023/09/22 06:01:53;;;;;;;19.27;10.30;;;;;;;40.19;23.89;100739.97;4928061;29;20035;-76
2023/09/22 06:04:19;;;;;;;19.48;9.77;;;;;;;40.17;23.29;100747.47;4929432;29;20055;-77
2023/09/22 06:06:45;;;;;;;16.75;10.55;;;;;;;40.20;22.44;100687.19;4929864;29;20048;-77
2023/09/22 06:09:12;;;;;;;17.10;10.95;;;;;;;39.32;23.16;100690.34;4928719;29;20074;-79
2023/09/22 06:11:38;;;;;;;19.27;10.05;;;;;;;39.84;23.07;100732.31;4942924;28;20043;-77
2023/09/22 06:14:05;;;;;;;19.08;10.25;;;;;;;40.68;22.07;100749.53;4929090;29;20043;-78
2023/09/22 06:16:32;;;;;;;11.95;9.07;;;;;;;41.58;21.38;100760.25;4929079;29;20047;-72
2023/09/22 06:18:58;;;;;;;12.73;8.82;;;;;;;41.78;21.40;100726.81;4944726;28;20431;-77
2023/09/22 06:21:25;;;;;;;16.95;10.15;;;;;;;41.48;21.33;100756.94;4943900;28;20072;-75
2023/09/22 06:23:51;;;;;;;12.77;9.15;;;;;;;41.83;20.84;100754.34;4923774;29;20044;-74
2023/09/22 06:26:17;;;;;;;21.73;10.50;;;;;;;41.90;20.67;100741.59;4927330;29;20043;-76
2023/09/22 06:28:44;;;;;;;18.52;9.77;;;;;;;41.52;20.53;100741.91;4922383;29;20063;-68
2023/09/22 06:31:11;;;;;;;15.93;9.93;;;;;;;41.92;19.61;100739.50;4919803;29;20055;-70
2023/09/22 06:33:37;;;;;;;15.57;9.02;;;;;;;42.63;19.56;100753.25;4927416;29;20623;-76
2023/09/22 06:36:05;;;;;;;13.98;9.38;;;;;;;42.56;19.10;100766.88;4940300;28;20863;-71
2023/09/22 06:38:33;;;;;;;16.73;9.55;;;;;;;42.80;18.62;100738.19;4941597;28;20406;-69
2023/09/22 06:41:04;;;;;;;15.98;9.98;;;;;;;42.87;18.54;100750.00;4929903;29;20430;-81
2023/09/22 06:43:33;;;;;;;13.10;8.93;;;;;;;42.82;18.33;100766.19;4945383;28;20046;-74
2023/09/22 06:46:04;;;;;;;12.68;9.10;;;;;;;43.16;18.25;100769.88;4932165;29;20047;-74
2023/09/22 06:48:31;;;;;;;13.98;9.07;;;;;;;43.65;17.84;100764.31;4930346;29;20078;-70
2023/09/22 06:50:58;;;;;;;12.45;8.65;;;;;;;43.65;17.23;100761.59;4925925;29;20070;-71
2023/09/22 06:53:26;;;;;;;10.30;7.95;;;;;;;44.25;17.26;100752.47;4922924;29;20047;-70
2023/09/22 06:56:06;;;;;;;12.25;8.38;;;;;;;45.25;16.47;100765.00;4929004;29;20043;-71
2023/09/22 06:58:36;;;;;;;12.35;8.48;;;;;;;44.99;16.77;100757.75;4930423;29;20044;-69
2023/09/22 07:01:20;;;;;;;16.30;8.07;;;;;;;45.60;15.62;100749.13;4930876;29;21523;-69
2023/09/22 07:03:48;;;;;;;12.48;8.40;;;;;;;46.11;15.38;100755.50;4907674;29;20067;-70
2023/09/22 07:06:15;;;;;;;16.50;8.32;;;;;;;46.85;14.78;100760.16;4945009;28;20077;-68
2023/09/22 07:08:44;;;;;;;10.32;7.88;;;;;;;47.56;14.42;100741.09;4936849;29;20036;-69
2023/09/22 07:11:10;;;;;;;9.77;8.67;;;;;;;47.16;14.00;100763.75;4912887;29;20454;-70
2023/09/22 07:13:37;;;;;;;11.82;8.30;;;;;;;47.05;14.07;100746.09;4930740;29;20107;-69
2023/09/22 07:16:04;;;;;;;9.50;7.40;;;;;;;48.05;13.39;100773.16;4927111;29;20057;-69
2023/09/22 07:18:30;;;;;;;11.15;8.07;;;;;;;48.76;12.86;100770.31;4928606;29;20046;-70
2023/09/22 07:20:56;;;;;;;10.63;7.18;;;;;;;47.94;13.34;100750.88;4929639;29;20035;-71
2023/09/22 07:23:23;;;;;;;10.57;8.65;;;;;;;47.71;12.40;100756.38;4929110;29;20044;-73
2023/09/22 07:26:06;;;;;;;10.70;8.52;;;;;;;47.96;12.26;100734.09;4944390;28;20158;-69
2023/09/22 07:28:34;;;;;;;8.75;7.50;;;;;;;48.50;12.58;100755.97;4925067;29;20035;-69
2023/09/22 07:31:28;;;;;;;10.48;8.00;;;;;;;48.89;12.05;100740.72;4928701;29;20601;-70
2023/09/22 07:33:54;;;;;;;15.93;8.40;;;;;;;49.17;11.65;100736.28;4931177;29;20167;-70
2023/09/22 07:36:20;;;;;;;11.00;7.07;;;;;;;49.33;11.72;100752.03;4924762;29;20138;-73
2023/09/22 07:38:46;;;;;;;10.48;7.72;;;;;;;49.36;11.13;100753.47;4926316;29;20052;-74
2023/09/22 07:41:12;;;;;;;9.07;7.40;;;;;;;49.07;11.31;100718.47;4943566;28;20138;-84
2023/09/22 07:43:38;;;;;;;13.10;7.45;;;;;;;49.96;10.74;100757.50;4931698;29;20478;-76
2023/09/22 07:46:06;;;;;;;10.38;6.90;;;;;;;50.81;10.45;100770.22;4927105;29;20043;-72
2023/09/22 07:48:33;;;;;;;12.02;6.70;;;;;;;51.44;10.55;100766.97;4924435;29;20074;-83
2023/09/22 07:51:02;;;;;;;8.43;6.85;;;;;;;50.76;10.26;100751.59;4926913;29;20047;-76
2023/09/22 07:53:29;;;;;;;12.32;7.45;;;;;;;50.52;9.74;100762.13;4929384;29;20089;-78
2023/09/22 07:55:59;;;;;;;10.95;7.22;;;;;;;50.95;9.91;100745.75;4927580;29;20039;-74
2023/09/22 07:58:26;;;;;;;11.60;7.10;;;;;;;51.73;9.18;100769.44;4940995;28;20168;-73
2023/09/22 08:00:52;;;;;;;12.63;6.85;;;;;;;51.73;9.61;100761.13;4924929;29;20039;-73
2023/09/22 08:03:18;;;;;;;13.63;6.85;;;;;;;51.80;9.38;100766.44;4939548;28;20533;-75
2023/09/22 08:05:45;;;;;;;11.95;6.97;;;;;;;51.15;9.65;100758.94;4910650;29;20051;-78
2023/09/22 08:08:13;;;;;;;9.80;7.05;;;;;;;50.83;9.74;100772.72;4934323;29;20040;-78
2023/09/22 08:10:40;;;;;;;13.63;8.00;;;;;;;50.98;9.48;100755.47;4928263;29;20062;-77
2023/09/22 08:13:09;;;;;;;9.73;6.80;;;;;;;50.70;9.38;100763.75;4926941;29;20039;-82
2023/09/22 08:15:37;;;;;;;14.63;7.07;;;;;;;49.82;9.61;100759.78;4926050;29;21328;-76
2023/09/22 08:18:07;;;;;;;13.57;6.13;;;;;;;49.76;9.56;100759.94;4927181;29;20700;-74
2023/09/22 08:20:33;;;;;;;8.95;6.22;;;;;;;49.82;9.17;100764.47;4923286;29;20035;-77
2023/09/22 08:23:00;;;;;;;8.75;6.10;;;;;;;49.88;8.98;100768.97;4935272;28;20481;-78
2023/09/22 08:25:27;;;;;;;10.25;6.22;;;;;;;49.22;9.14;100747.44;4926983;29;20047;-76
2023/09/22 08:27:54;;;;;;;12.82;6.20;;;;;;;48.59;9.61;100774.91;4940445;28;20068;-78
2023/09/22 08:30:20;;;;;;;12.25;6.53;;;;;;;48.59;9.69;100772.16;4924682;29;20044;-80
2023/09/22 08:32:46;;;;;;;12.98;6.72;;;;;;;49.43;9.26;100762.47;4941834;28;20048;-81
2023/09/22 08:35:15;;;;;;;8.35;5.97;;;;;;;50.39;8.70;100765.28;4940533;28;20066;-76
2023/09/22 08:37:42;;;;;;;;;;;;;;;50.85;8.90;100770.53;4940282;28;20064;-78
2023/09/22 08:40:09;;;;;;;12.77;5.78;;;;;;;51.44;9.00;100774.44;4926383;29;20510;-77
2023/09/22 08:42:38;;;;;;;10.27;5.32;;;;;;;51.61;8.42;100766.88;4925535;29;20040;-75
2023/09/22 08:45:08;;;;;;;13.25;5.13;;;;;;;50.72;8.27;100769.00;4926312;29;20051;-76
2023/09/22 08:47:39;;;;;;;10.75;4.93;;;;;;;49.80;8.40;100739.84;4927515;29;20047;-78
2023/09/22 08:50:19;;;;;;;7.70;5.70;;;;;;;49.77;8.72;100739.50;4939370;28;20555;-78
2023/09/22 08:52:51;;;;;;;9.20;5.22;;;;;;;49.92;8.63;100764.63;4927892;29;20045;-74
2023/09/22 08:55:18;;;;;;;8.32;5.45;;;;;;;50.21;8.68;100750.66;4925061;29;20219;-76
2023/09/22 08:57:47;;;;;;;8.38;5.40;;;;;;;50.41;8.38;100777.75;4941327;28;20067;-76
2023/09/22 09:00:18;;;;;;;11.52;4.90;;;;;;;49.10;8.60;100755.78;4918169;29;20126;-79
2023/09/22 09:02:46;;;;;;;7.20;4.97;;;;;;;49.83;8.49;100735.72;4948818;28;20134;-80
2023/09/22 09:05:27;;;;;;;6.97;4.65;;;;;;;50.84;8.27;100769.72;4947375;28;20050;-78
2023/09/22 09:07:54;;;;;;;9.75;4.95;;;;;;;50.99;7.67;100766.25;4947049;28;20087;-75
2023/09/22 09:10:30;;;;;;;10.35;4.88;;;;;;;51.53;7.75;100759.00;4930175;29;20176;-78
2023/09/22 09:13:01;;;;;;;8.27;5.10;;;;;;;51.88;7.36;100765.09;4929750;29;20059;-76
2023/09/22 09:15:43;;;;;;;8.68;5.38;;;;;;;52.25;7.50;100761.44;4932165;29;20083;-80
2023/09/22 09:18:15;;;;;;;10.63;5.20;;;;;;;51.86;7.10;100758.97;4946935;28;20102;-78
2023/09/22 09:20:42;;;;;;;6.68;5.38;;;;;;;49.88;7.51;100755.16;4927610;29;20043;-78
2023/09/22 09:23:15;;;;;;;8.75;5.30;;;;;;;48.07;8.53;100766.34;4934460;29;20098;-77
2023/09/22 09:25:46;;;;;;;9.45;5.55;;;;;;;47.65;8.56;100750.72;4944242;28;20039;-77
2023/09/22 09:28:15;;;;;;;7.30;4.85;;;;;;;47.68;8.65;100749.41;4945578;28;20079;-80
2023/09/22 09:30:51;;;;;;;9.93;4.90;;;;;;;47.60;8.63;100741.50;4932741;29;20071;-80
2023/09/22 09:33:31;;;;;;;8.00;4.70;;;;;;;48.07;8.40;100751.69;4946373;28;20047;-78
2023/09/22 09:35:58;;;;;;;7.15;4.40;;;;;;;48.43;8.33;100729.59;4929862;29;20589;-77
2023/09/22 09:38:26;;;;;;;7.75;5.10;;;;;;;48.01;8.25;100758.16;4931866;29;20043;-75
2023/09/22 09:40:53;;;;;;;7.35;5.18;;;;;;;46.84;8.26;100741.97;4947520;28;20051;-75
2023/09/22 09:43:20;;;;;;;7.38;4.97;;;;;;;45.93;8.92;100720.53;4947314;28;20090;-75
2023/09/22 09:45:47;;;;;;;10.05;6.10;;;;;;;46.30;9.37;100737.06;4931066;29;20194;-75
2023/09/22 09:48:16;;;;;;;5.88;5.28;;;;;;;45.94;8.93;100735.97;4947418;28;20068;-75
2023/09/22 09:50:48;;;;;;;6.00;5.40;;;;;;;45.63;9.65;100732.19;4949107;28;20102;-86
2023/09/22 09:53:31;;;;;;;7.30;5.38;;;;;;;45.16;9.07;100732.53;4939865;29;20189;-82
2023/09/22 09:56:02;;;;;;;8.38;4.97;;;;;;;44.31;9.74;100743.41;4931308;29;20528;-84
2023/09/22 09:58:34;;;;;;;5.85;4.53;;;;;;;42.73;10.84;100685.31;4934857;29;20129;-77
2023/09/22 10:01:05;;;;;;;9.20;4.53;;;;;;;42.99;9.99;100753.00;4946168;28;20042;-79
2023/09/22 10:03:33;;;;;;;10.77;4.80;;;;;;;42.93;10.35;100740.13;4933987;29;20126;-77
2023/09/22 10:06:02;;;;;;;6.85;4.95;;;;;;;42.80;9.76;100715.47;4932277;29;20113;-82
2023/09/22 10:08:29;;;;;;;9.73;4.45;;;;;;;41.70;11.00;100733.25;4946501;28;20693;-78
2023/09/22 10:11:01;;;;;;;7.35;4.82;;;;;;;39.95;11.72;100719.28;4929575;29;20039;-77
2023/09/22 10:13:27;;;;;;;7.50;4.63;;;;;;;38.31;12.80;100739.88;4932709;29;20055;-78
2023/09/22 10:16:04;;;;;;;6.18;4.63;;;;;;;36.76;13.72;100732.19;4930391;29;20072;-83
2023/09/22 10:19:00;;;;;;;6.00;4.85;;;;;;;35.88;14.71;100740.25;4930504;29;20039;-75
2023/09/22 10:21:29;;;;;;;5.55;4.70;;;;;;;35.36;15.01;100750.91;4943259;28;20139;-78
2023/09/22 10:24:16;;;;;;;5.72;4.85;;;;;;;34.55;15.93;100731.69;4931708;29;20423;-80
2023/09/22 10:26:54;;;;;;;6.05;5.15;;;;;;;34.12;16.43;100738.47;4915770;29;20035;-80
2023/09/22 10:29:53;;;;;;;6.15;5.05;;;;;;;33.33;17.25;100725.78;4942502;28;20050;-74
2023/09/22 10:32:21;;;;;;;5.93;5.32;;;;;;;32.65;17.20;100730.97;4934182;29;20047;-74
2023/09/22 10:34:52;;;;;;;5.57;5.07;;;;;;;31.93;18.32;100728.97;4925829;29;20118;-76
2023/09/22 10:37:20;;;;;;;6.97;5.30;;;;;;;31.60;18.95;100756.84;4924390;29;20134;-75
2023/09/22 10:39:54;;;;;;;6.15;5.22;;;;;;;31.27;19.68;100751.41;4929549;29;20544;-73
2023/09/22 10:42:21;;;;;;;11.27;6.28;;;;;;;30.89;19.73;100752.66;4935397;28;20035;-76
2023/09/22 10:45:05;;;;;;;7.07;5.20;;;;;;;30.60;19.91;100740.56;4929250;28;20175;-75
2023/09/22 10:47:41;;;;;;;7.55;5.07;;;;;;;30.47;20.17;100748.69;4925385;29;20051;-75
2023/09/22 10:50:16;;;;;;;13.10;5.45;;;;;;;29.89;20.18;100700.38;4943150;28;20115;-75
2023/09/22 10:52:53;;;;;;;7.90;5.47;;;;;;;29.91;20.62;100750.25;4921614;29;20043;-74
2023/09/22 10:55:24;;;;;;;6.65;5.15;;;;;;;29.60;21.35;100738.28;4927841;29;20075;-74
2023/09/22 10:57:51;;;;;;;7.47;5.55;;;;;;;28.84;21.17;100653.56;4925639;29;20726;-75
2023/09/22 11:00:18;;;;;;;8.55;5.22;;;;;;;28.99;21.92;100717.69;4941606;28;20549;-76
2023/09/22 11:02:45;;;;;;;8.93;5.85;;;;;;;28.92;22.46;100740.53;4925075;29;20157;-75
2023/09/22 11:05:12;;;;;;;8.15;5.43;;;;;;;28.55;22.29;100702.00;4928558;29;20118;-75
2023/09/22 11:07:38;;;;;;;6.35;5.18;;;;;;;28.42;23.10;100735.91;4925685;29;20040;-74
2023/09/22 11:10:05;;;;;;;6.05;4.82;;;;;;;28.19;23.07;100737.53;4924131;29;20062;-74
2023/09/22 11:12:31;;;;;;;6.07;5.20;;;;;;;28.10;23.42;100747.00;4941436;28;20036;-75
2023/09/22 11:15:00;;;;;;;5.55;5.03;;;;;;;28.03;22.98;100741.19;4928026;29;20143;-77
2023/09/22 11:17:46;;;;;;;6.25;5.40;;;;;;;27.78;23.61;100750.00;4933773;29;20526;-76
2023/09/22 11:20:22;;;;;;;5.88;4.80;;;;;;;27.41;23.30;100726.53;4941459;28;20039;-77
2023/09/22 11:22:50;;;;;;;5.60;5.10;;;;;;;27.32;23.97;100753.88;4928815;29;20044;-75